sensor_id;sensor_type;location;lat;lon;timestamp;temperature;humidity
66328;DHT22;53133;52.862;6.602;2022-07-01T00:02:01;16.10;99.90
66328;DHT22;53133;52.862;6.602;2022-07-01T00:04:27;16.10;99.90
66328;DHT22;53133;52.862;6.602;2022-07-01T00:06:53;16.20;99.90
66328;DHT22;53133;52.862;6.602;2022-07-01T00:09:20;16.20;99.90
66328;DHT22;53133;52.862;6.602;2022-07-01T00:11:46;16.30;99.90
66328;DHT22;53133;52.862;6.602;2022-07-01T00:14:11;16.30;99.90
66328;DHT22;53133;52.862;6.602;2022-07-01T00:16:37;16.30;99.90
66328;DHT22;53133;52.862;6.602;2022-07-01T00:19:03;16.30;99.90
66328;DHT22;53133;52.862;6.602;2022-07-01T00:21:29;16.30;99.90
66328;DHT22;53133;52.862;6.602;2022-07-01T00:23:55;16.30;99.90
66328;DHT22;53133;52.862;6.602;2022-07-01T00:26:20;16.40;99.90
66328;DHT22;53133;52.862;6.602;2022-07-01T00:28:46;16.40;99.90
66328;DHT22;53133;52.862;6.602;2022-07-01T00:31:12;16.30;99.90
66328;DHT22;53133;52.862;6.602;2022-07-01T00:33:38;16.30;99.90
66328;DHT22;53133;52.862;6.602;2022-07-01T00:36:03;16.30;99.90
66328;DHT22;53133;52.862;6.602;2022-07-01T00:38:29;16.30;99.90
66328;DHT22;53133;52.862;6.602;2022-07-01T00:40:55;16.30;99.90
66328;DHT22;53133;52.862;6.602;2022-07-01T00:43:21;16.30;99.90
66328;DHT22;53133;52.862;6.602;2022-07-01T00:45:52;16.30;99.90
66328;DHT22;53133;52.862;6.602;2022-07-01T00:48:19;16.30;99.90
66328;DHT22;53133;52.862;6.602;2022-07-01T00:50:45;16.40;99.90
66328;DHT22;53133;52.862;6.602;2022-07-01T00:53:14;16.40;99.90
66328;DHT22;53133;52.862;6.602;2022-07-01T00:55:43;16.30;99.90
66328;DHT22;53133;52.862;6.602;2022-07-01T00:58:09;16.30;99.90
66328;DHT22;53133;52.862;6.602;2022-07-01T01:00:36;16.30;99.90
66328;DHT22;53133;52.862;6.602;2022-07-01T01:03:05;16.30;99.90
66328;DHT22;53133;52.862;6.602;2022-07-01T01:05:31;16.20;99.90
66328;DHT22;53133;52.862;6.602;2022-07-01T01:07:57;16.20;99.90
66328;DHT22;53133;52.862;6.602;2022-07-01T01:10:23;16.20;99.90
66328;DHT22;53133;52.862;6.602;2022-07-01T01:12:50;16.10;99.90
66328;DHT22;53133;52.862;6.602;2022-07-01T01:15:19;16.00;99.90
66328;DHT22;53133;52.862;6.602;2022-07-01T01:17:45;16.00;99.90
66328;DHT22;53133;52.862;6.602;2022-07-01T01:20:19;16.00;99.90
66328;DHT22;53133;52.862;6.602;2022-07-01T01:22:46;15.90;99.90
66328;DHT22;53133;52.862;6.602;2022-07-01T01:25:16;15.90;99.90
66328;DHT22;53133;52.862;6.602;2022-07-01T01:27:41;15.90;99.90
66328;DHT22;53133;52.862;6.602;2022-07-01T01:30:10;15.90;99.90
66328;DHT22;53133;52.862;6.602;2022-07-01T01:32:37;15.90;99.90
66328;DHT22;53133;52.862;6.602;2022-07-01T01:35:03;15.90;99.90
66328;DHT22;53133;52.862;6.602;2022-07-01T01:37:29;15.90;99.90
66328;DHT22;53133;52.862;6.602;2022-07-01T01:39:55;15.90;99.90
66328;DHT22;53133;52.862;6.602;2022-07-01T01:42:21;15.90;99.90
66328;DHT22;53133;52.862;6.602;2022-07-01T01:44:46;15.90;99.90
66328;DHT22;53133;52.862;6.602;2022-07-01T01:47:12;15.90;99.90
66328;DHT22;53133;52.862;6.602;2022-07-01T01:49:38;15.90;99.90
66328;DHT22;53133;52.862;6.602;2022-07-01T01:52:04;15.90;99.90
66328;DHT22;53133;52.862;6.602;2022-07-01T01:54:29;15.90;99.90
66328;DHT22;53133;52.862;6.602;2022-07-01T01:56:55;15.90;99.90
66328;DHT22;53133;52.862;6.602;2022-07-01T01:59:21;15.90;99.90
66328;DHT22;53133;52.862;6.602;2022-07-01T02:01:46;16.00;99.90
66328;DHT22;53133;52.862;6.602;2022-07-01T02:04:12;15.90;99.90
66328;DHT22;53133;52.862;6.602;2022-07-01T02:06:38;15.90;99.90
66328;DHT22;53133;52.862;6.602;2022-07-01T02:09:06;15.90;99.90
66328;DHT22;53133;52.862;6.602;2022-07-01T02:11:32;15.90;99.90
66328;DHT22;53133;52.862;6.602;2022-07-01T02:13:58;16.00;99.90
66328;DHT22;53133;52.862;6.602;2022-07-01T02:16:23;15.90;99.90
66328;DHT22;53133;52.862;6.602;2022-07-01T02:18:49;15.90;99.90
66328;DHT22;53133;52.862;6.602;2022-07-01T02:21:14;15.90;99.90
66328;DHT22;53133;52.862;6.602;2022-07-01T02:23:40;15.90;99.90
66328;DHT22;53133;52.862;6.602;2022-07-01T02:26:05;15.90;99.90
66328;DHT22;53133;52.862;6.602;2022-07-01T02:28:31;15.90;99.90
66328;DHT22;53133;52.862;6.602;2022-07-01T02:30:57;15.90;99.90
66328;DHT22;53133;52.862;6.602;2022-07-01T02:33:22;15.90;99.90
66328;DHT22;53133;52.862;6.602;2022-07-01T02:35:48;15.90;99.90
66328;DHT22;53133;52.862;6.602;2022-07-01T02:38:15;15.90;99.90
66328;DHT22;53133;52.862;6.602;2022-07-01T02:40:40;16.00;99.90
66328;DHT22;53133;52.862;6.602;2022-07-01T02:43:07;16.00;99.90
66328;DHT22;53133;52.862;6.602;2022-07-01T02:45:33;16.00;99.90
66328;DHT22;53133;52.862;6.602;2022-07-01T02:47:58;16.00;99.90
66328;DHT22;53133;52.862;6.602;2022-07-01T02:50:24;16.00;99.90
66328;DHT22;53133;52.862;6.602;2022-07-01T02:52:49;15.90;99.90
66328;DHT22;53133;52.862;6.602;2022-07-01T02:55:15;16.00;99.90
66328;DHT22;53133;52.862;6.602;2022-07-01T02:57:42;16.00;99.90
66328;DHT22;53133;52.862;6.602;2022-07-01T03:00:10;16.00;99.90
66328;DHT22;53133;52.862;6.602;2022-07-01T03:02:36;16.00;99.90
66328;DHT22;53133;52.862;6.602;2022-07-01T03:05:03;15.90;99.90
66328;DHT22;53133;52.862;6.602;2022-07-01T03:07:29;16.00;99.90
66328;DHT22;53133;52.862;6.602;2022-07-01T03:09:56;16.00;99.90
66328;DHT22;53133;52.862;6.602;2022-07-01T03:12:22;15.90;99.90
66328;DHT22;53133;52.862;6.602;2022-07-01T03:14:55;15.90;99.90
66328;DHT22;53133;52.862;6.602;2022-07-01T03:17:22;15.90;99.90
66328;DHT22;53133;52.862;6.602;2022-07-01T03:19:48;16.00;99.90
66328;DHT22;53133;52.862;6.602;2022-07-01T03:22:14;15.90;99.90
66328;DHT22;53133;52.862;6.602;2022-07-01T03:24:40;15.90;99.90
66328;DHT22;53133;52.862;6.602;2022-07-01T03:27:05;15.90;99.90
66328;DHT22;53133;52.862;6.602;2022-07-01T03:29:31;15.90;99.90
66328;DHT22;53133;52.862;6.602;2022-07-01T03:31:56;15.90;99.90
66328;DHT22;53133;52.862;6.602;2022-07-01T03:34:22;15.90;99.90
66328;DHT22;53133;52.862;6.602;2022-07-01T03:36:48;15.90;99.90
66328;DHT22;53133;52.862;6.602;2022-07-01T03:39:13;15.80;99.90
66328;DHT22;53133;52.862;6.602;2022-07-01T03:41:39;15.80;99.90
66328;DHT22;53133;52.862;6.602;2022-07-01T03:44:05;15.80;99.90
66328;DHT22;53133;52.862;6.602;2022-07-01T03:46:32;15.80;99.90
66328;DHT22;53133;52.862;6.602;2022-07-01T03:48:58;15.80;99.90
66328;DHT22;53133;52.862;6.602;2022-07-01T03:51:24;15.70;99.90
66328;DHT22;53133;52.862;6.602;2022-07-01T03:53:49;15.80;99.90
66328;DHT22;53133;52.862;6.602;2022-07-01T03:56:33;15.70;99.90
66328;DHT22;53133;52.862;6.602;2022-07-01T03:58:59;15.80;99.90
66328;DHT22;53133;52.862;6.602;2022-07-01T04:01:25;15.70;99.90
66328;DHT22;53133;52.862;6.602;2022-07-01T04:03:50;15.70;99.90
66328;DHT22;53133;52.862;6.602;2022-07-01T04:06:16;15.70;99.90
66328;DHT22;53133;52.862;6.602;2022-07-01T04:08:42;15.70;99.90
66328;DHT22;53133;52.862;6.602;2022-07-01T04:11:08;15.70;99.90
66328;DHT22;53133;52.862;6.602;2022-07-01T04:13:37;15.70;99.90
66328;DHT22;53133;52.862;6.602;2022-07-01T04:16:03;15.70;99.90
66328;DHT22;53133;52.862;6.602;2022-07-01T04:18:29;15.70;99.90
66328;DHT22;53133;52.862;6.602;2022-07-01T04:20:56;15.70;99.90
66328;DHT22;53133;52.862;6.602;2022-07-01T04:23:41;15.70;99.90
66328;DHT22;53133;52.862;6.602;2022-07-01T04:26:07;15.70;99.90
66328;DHT22;53133;52.862;6.602;2022-07-01T04:28:32;15.70;99.90
66328;DHT22;53133;52.862;6.602;2022-07-01T04:30:58;15.70;99.90
66328;DHT22;53133;52.862;6.602;2022-07-01T04:33:23;15.70;99.90
66328;DHT22;53133;52.862;6.602;2022-07-01T04:35:49;15.70;99.90
66328;DHT22;53133;52.862;6.602;2022-07-01T04:38:15;15.70;99.90
66328;DHT22;53133;52.862;6.602;2022-07-01T04:40:40;15.70;99.90
66328;DHT22;53133;52.862;6.602;2022-07-01T04:43:26;15.70;99.90
66328;DHT22;53133;52.862;6.602;2022-07-01T04:45:51;15.70;99.90
66328;DHT22;53133;52.862;6.602;2022-07-01T04:48:17;15.60;99.90
66328;DHT22;53133;52.862;6.602;2022-07-01T04:50:42;15.70;99.90
66328;DHT22;53133;52.862;6.602;2022-07-01T04:53:09;15.60;99.90
66328;DHT22;53133;52.862;6.602;2022-07-01T04:55:35;15.60;99.90
66328;DHT22;53133;52.862;6.602;2022-07-01T04:58:00;15.70;99.90
66328;DHT22;53133;52.862;6.602;2022-07-01T05:00:26;15.60;99.90
66328;DHT22;53133;52.862;6.602;2022-07-01T05:02:51;15.60;99.90
66328;DHT22;53133;52.862;6.602;2022-07-01T05:05:17;15.60;99.90
66328;DHT22;53133;52.862;6.602;2022-07-01T05:07:43;15.60;99.90
66328;DHT22;53133;52.862;6.602;2022-07-01T05:10:08;15.60;99.90
66328;DHT22;53133;52.862;6.602;2022-07-01T05:12:34;15.60;99.90
66328;DHT22;53133;52.862;6.602;2022-07-01T05:14:59;15.70;99.90
66328;DHT22;53133;52.862;6.602;2022-07-01T05:17:25;15.60;99.90
66328;DHT22;53133;52.862;6.602;2022-07-01T05:20:11;15.70;99.90
66328;DHT22;53133;52.862;6.602;2022-07-01T05:22:55;15.70;99.90
66328;DHT22;53133;52.862;6.602;2022-07-01T05:25:20;15.70;99.90
66328;DHT22;53133;52.862;6.602;2022-07-01T05:27:46;15.70;99.90
66328;DHT22;53133;52.862;6.602;2022-07-01T05:30:12;15.80;99.90
66328;DHT22;53133;52.862;6.602;2022-07-01T05:32:37;15.80;99.90
66328;DHT22;53133;52.862;6.602;2022-07-01T05:35:03;15.80;99.90
66328;DHT22;53133;52.862;6.602;2022-07-01T05:37:29;15.90;99.90
66328;DHT22;53133;52.862;6.602;2022-07-01T05:39:54;15.90;99.90
66328;DHT22;53133;52.862;6.602;2022-07-01T05:42:20;15.90;99.90
66328;DHT22;53133;52.862;6.602;2022-07-01T05:44:45;15.90;99.90
66328;DHT22;53133;52.862;6.602;2022-07-01T05:47:11;16.00;99.90
66328;DHT22;53133;52.862;6.602;2022-07-01T05:49:36;16.00;99.90
66328;DHT22;53133;52.862;6.602;2022-07-01T05:52:02;16.00;99.90
66328;DHT22;53133;52.862;6.602;2022-07-01T05:54:28;16.00;99.90
66328;DHT22;53133;52.862;6.602;2022-07-01T05:56:53;16.00;99.90
66328;DHT22;53133;52.862;6.602;2022-07-01T05:59:19;16.00;99.90
66328;DHT22;53133;52.862;6.602;2022-07-01T06:01:44;16.10;99.90
66328;DHT22;53133;52.862;6.602;2022-07-01T06:04:11;16.10;99.90
66328;DHT22;53133;52.862;6.602;2022-07-01T06:06:37;16.10;99.90
66328;DHT22;53133;52.862;6.602;2022-07-01T06:09:02;16.10;99.90
66328;DHT22;53133;52.862;6.602;2022-07-01T06:11:28;16.10;99.90
66328;DHT22;53133;52.862;6.602;2022-07-01T06:13:54;16.10;99.90
66328;DHT22;53133;52.862;6.602;2022-07-01T06:16:19;16.20;99.90
66328;DHT22;53133;52.862;6.602;2022-07-01T06:18:45;16.20;99.90
66328;DHT22;53133;52.862;6.602;2022-07-01T06:21:11;16.20;99.90
66328;DHT22;53133;52.862;6.602;2022-07-01T06:23:36;16.30;99.90
66328;DHT22;53133;52.862;6.602;2022-07-01T06:26:03;16.30;99.90
66328;DHT22;53133;52.862;6.602;2022-07-01T06:28:28;16.30;99.90
66328;DHT22;53133;52.862;6.602;2022-07-01T06:30:56;16.40;99.90
66328;DHT22;53133;52.862;6.602;2022-07-01T06:33:21;16.40;99.90
66328;DHT22;53133;52.862;6.602;2022-07-01T06:35:47;16.40;99.90
66328;DHT22;53133;52.862;6.602;2022-07-01T06:38:12;16.40;99.90
66328;DHT22;53133;52.862;6.602;2022-07-01T06:40:38;16.40;99.90
66328;DHT22;53133;52.862;6.602;2022-07-01T06:43:03;16.40;99.90
66328;DHT22;53133;52.862;6.602;2022-07-01T06:45:29;16.40;99.90
66328;DHT22;53133;52.862;6.602;2022-07-01T06:47:55;16.40;99.90
66328;DHT22;53133;52.862;6.602;2022-07-01T06:50:20;16.40;99.90
66328;DHT22;53133;52.862;6.602;2022-07-01T06:52:46;16.40;99.90
66328;DHT22;53133;52.862;6.602;2022-07-01T06:55:12;16.40;99.90
66328;DHT22;53133;52.862;6.602;2022-07-01T06:57:37;16.40;99.90
66328;DHT22;53133;52.862;6.602;2022-07-01T07:00:03;16.40;99.90
66328;DHT22;53133;52.862;6.602;2022-07-01T07:02:29;16.40;99.90
66328;DHT22;53133;52.862;6.602;2022-07-01T07:04:55;16.40;99.90
66328;DHT22;53133;52.862;6.602;2022-07-01T07:07:23;16.40;99.90
66328;DHT22;53133;52.862;6.602;2022-07-01T07:09:49;16.40;99.90
66328;DHT22;53133;52.862;6.602;2022-07-01T07:12:15;16.40;99.90
66328;DHT22;53133;52.862;6.602;2022-07-01T07:14:40;16.40;99.90
66328;DHT22;53133;52.862;6.602;2022-07-01T07:17:06;16.40;99.90
66328;DHT22;53133;52.862;6.602;2022-07-01T07:19:32;16.40;99.90
66328;DHT22;53133;52.862;6.602;2022-07-01T07:21:57;16.40;99.90
66328;DHT22;53133;52.862;6.602;2022-07-01T07:24:23;16.50;99.90
66328;DHT22;53133;52.862;6.602;2022-07-01T07:26:49;16.50;99.90
66328;DHT22;53133;52.862;6.602;2022-07-01T07:29:14;16.60;99.90
66328;DHT22;53133;52.862;6.602;2022-07-01T07:31:40;16.60;99.90
66328;DHT22;53133;52.862;6.602;2022-07-01T07:34:05;16.70;99.90
66328;DHT22;53133;52.862;6.602;2022-07-01T07:36:31;16.70;99.90
66328;DHT22;53133;52.862;6.602;2022-07-01T07:38:57;16.80;99.90
66328;DHT22;53133;52.862;6.602;2022-07-01T07:41:23;16.90;99.90
66328;DHT22;53133;52.862;6.602;2022-07-01T07:43:49;16.90;99.90
66328;DHT22;53133;52.862;6.602;2022-07-01T07:46:15;17.00;99.90
66328;DHT22;53133;52.862;6.602;2022-07-01T07:48:40;17.00;99.90
66328;DHT22;53133;52.862;6.602;2022-07-01T07:51:09;17.00;99.90
66328;DHT22;53133;52.862;6.602;2022-07-01T07:53:34;17.10;99.90
66328;DHT22;53133;52.862;6.602;2022-07-01T07:56:00;17.10;99.90
66328;DHT22;53133;52.862;6.602;2022-07-01T07:58:26;17.10;99.90
66328;DHT22;53133;52.862;6.602;2022-07-01T08:00:51;17.20;99.90
66328;DHT22;53133;52.862;6.602;2022-07-01T08:03:17;17.20;99.90
66328;DHT22;53133;52.862;6.602;2022-07-01T08:05:43;17.20;99.90
66328;DHT22;53133;52.862;6.602;2022-07-01T08:08:08;17.20;99.90
66328;DHT22;53133;52.862;6.602;2022-07-01T08:10:34;17.30;99.90
66328;DHT22;53133;52.862;6.602;2022-07-01T08:12:59;17.40;99.90
66328;DHT22;53133;52.862;6.602;2022-07-01T08:15:30;17.40;99.90
66328;DHT22;53133;52.862;6.602;2022-07-01T08:17:56;17.50;99.90
66328;DHT22;53133;52.862;6.602;2022-07-01T08:20:22;17.60;99.90
66328;DHT22;53133;52.862;6.602;2022-07-01T08:22:47;17.60;99.80
66328;DHT22;53133;52.862;6.602;2022-07-01T08:25:13;17.60;99.70
66328;DHT22;53133;52.862;6.602;2022-07-01T08:27:38;17.70;99.80
66328;DHT22;53133;52.862;6.602;2022-07-01T08:30:06;17.70;99.80
66328;DHT22;53133;52.862;6.602;2022-07-01T08:32:32;17.70;99.70
66328;DHT22;53133;52.862;6.602;2022-07-01T08:34:57;17.70;99.50
66328;DHT22;53133;52.862;6.602;2022-07-01T08:37:23;17.80;99.30
66328;DHT22;53133;52.862;6.602;2022-07-01T08:39:48;17.90;99.00
66328;DHT22;53133;52.862;6.602;2022-07-01T08:42:14;18.00;98.60
66328;DHT22;53133;52.862;6.602;2022-07-01T08:44:40;18.00;98.50
66328;DHT22;53133;52.862;6.602;2022-07-01T08:47:11;18.00;98.60
66328;DHT22;53133;52.862;6.602;2022-07-01T08:49:36;18.10;98.80
66328;DHT22;53133;52.862;6.602;2022-07-01T08:52:02;18.10;98.50
66328;DHT22;53133;52.862;6.602;2022-07-01T08:54:28;18.20;98.60
66328;DHT22;53133;52.862;6.602;2022-07-01T08:56:53;18.30;98.20
66328;DHT22;53133;52.862;6.602;2022-07-01T08:59:24;18.40;98.10
66328;DHT22;53133;52.862;6.602;2022-07-01T09:02:01;18.40;97.70
66328;DHT22;53133;52.862;6.602;2022-07-01T09:04:27;18.50;97.40
66328;DHT22;53133;52.862;6.602;2022-07-01T09:07:01;18.40;97.20
66328;DHT22;53133;52.862;6.602;2022-07-01T09:09:27;18.40;97.10
66328;DHT22;53133;52.862;6.602;2022-07-01T09:11:55;18.40;97.30
66328;DHT22;53133;52.862;6.602;2022-07-01T09:14:28;18.40;97.40
66328;DHT22;53133;52.862;6.602;2022-07-01T09:17:02;18.40;97.30
66328;DHT22;53133;52.862;6.602;2022-07-01T09:19:32;18.40;97.20
66328;DHT22;53133;52.862;6.602;2022-07-01T09:22:00;18.40;97.30
66328;DHT22;53133;52.862;6.602;2022-07-01T09:24:38;18.50;97.50
66328;DHT22;53133;52.862;6.602;2022-07-01T09:27:06;18.50;97.10
66328;DHT22;53133;52.862;6.602;2022-07-01T09:29:49;18.50;97.30
66328;DHT22;53133;52.862;6.602;2022-07-01T09:34:56;18.60;96.80
66328;DHT22;53133;52.862;6.602;2022-07-01T09:37:22;18.60;96.70
66328;DHT22;53133;52.862;6.602;2022-07-01T09:39:49;18.70;96.30
66328;DHT22;53133;52.862;6.602;2022-07-01T09:42:17;18.70;96.30
66328;DHT22;53133;52.862;6.602;2022-07-01T09:47:22;18.80;96.30
66328;DHT22;53133;52.862;6.602;2022-07-01T09:49:48;18.80;95.90
66328;DHT22;53133;52.862;6.602;2022-07-01T09:52:14;18.80;95.80
66328;DHT22;53133;52.862;6.602;2022-07-01T09:54:40;18.90;95.50
66328;DHT22;53133;52.862;6.602;2022-07-01T09:57:06;19.00;95.40
66328;DHT22;53133;52.862;6.602;2022-07-01T09:59:31;19.00;95.30
66328;DHT22;53133;52.862;6.602;2022-07-01T10:01:57;19.00;95.50
66328;DHT22;53133;52.862;6.602;2022-07-01T10:04:24;19.10;95.40
66328;DHT22;53133;52.862;6.602;2022-07-01T10:07:04;19.10;95.00
66328;DHT22;53133;52.862;6.602;2022-07-01T10:14:53;19.20;94.70
66328;DHT22;53133;52.862;6.602;2022-07-01T10:17:29;19.30;94.10
66328;DHT22;53133;52.862;6.602;2022-07-01T10:19:56;19.20;93.70
66328;DHT22;53133;52.862;6.602;2022-07-01T10:22:29;19.20;93.70
66328;DHT22;53133;52.862;6.602;2022-07-01T10:24:56;19.20;93.60
66328;DHT22;53133;52.862;6.602;2022-07-01T10:27:24;19.30;93.80
66328;DHT22;53133;52.862;6.602;2022-07-01T10:30:13;19.20;93.60
66328;DHT22;53133;52.862;6.602;2022-07-01T10:32:46;19.30;93.20
66328;DHT22;53133;52.862;6.602;2022-07-01T10:35:13;19.30;93.40
66328;DHT22;53133;52.862;6.602;2022-07-01T10:38:00;19.40;93.30
66328;DHT22;53133;52.862;6.602;2022-07-01T10:40:43;19.40;92.90
66328;DHT22;53133;52.862;6.602;2022-07-01T10:43:32;19.30;93.20
66328;DHT22;53133;52.862;6.602;2022-07-01T10:45:59;19.30;93.20
66328;DHT22;53133;52.862;6.602;2022-07-01T10:48:25;19.20;93.20
66328;DHT22;53133;52.862;6.602;2022-07-01T10:50:52;19.30;93.00
66328;DHT22;53133;52.862;6.602;2022-07-01T10:53:18;19.30;92.70
66328;DHT22;53133;52.862;6.602;2022-07-01T10:55:46;19.30;92.70
66328;DHT22;53133;52.862;6.602;2022-07-01T10:58:13;19.40;92.60
66328;DHT22;53133;52.862;6.602;2022-07-01T11:00:47;19.50;92.70
66328;DHT22;53133;52.862;6.602;2022-07-01T11:03:14;19.70;92.50
66328;DHT22;53133;52.862;6.602;2022-07-01T11:05:41;19.80;92.20
66328;DHT22;53133;52.862;6.602;2022-07-01T11:08:08;19.90;92.20
66328;DHT22;53133;52.862;6.602;2022-07-01T11:10:34;19.90;92.30
66328;DHT22;53133;52.862;6.602;2022-07-01T11:13:01;20.00;92.30
66328;DHT22;53133;52.862;6.602;2022-07-01T11:15:30;20.00;92.10
66328;DHT22;53133;52.862;6.602;2022-07-01T11:17:57;20.10;92.10
66328;DHT22;53133;52.862;6.602;2022-07-01T11:20:25;20.20;91.90
66328;DHT22;53133;52.862;6.602;2022-07-01T11:22:51;20.20;91.60
66328;DHT22;53133;52.862;6.602;2022-07-01T11:25:19;20.20;91.40
66328;DHT22;53133;52.862;6.602;2022-07-01T11:27:46;20.30;91.50
66328;DHT22;53133;52.862;6.602;2022-07-01T11:30:13;20.30;91.30
66328;DHT22;53133;52.862;6.602;2022-07-01T11:32:46;20.30;91.30
66328;DHT22;53133;52.862;6.602;2022-07-01T11:35:15;20.30;91.20
66328;DHT22;53133;52.862;6.602;2022-07-01T11:38:14;20.30;91.10
66328;DHT22;53133;52.862;6.602;2022-07-01T11:41:01;20.40;91.30
66328;DHT22;53133;52.862;6.602;2022-07-01T11:43:36;20.60;90.60
66328;DHT22;53133;52.862;6.602;2022-07-01T11:46:04;20.60;90.30
66328;DHT22;53133;52.862;6.602;2022-07-01T11:48:31;20.60;90.20
66328;DHT22;53133;52.862;6.602;2022-07-01T11:50:58;20.50;90.70
66328;DHT22;53133;52.862;6.602;2022-07-01T11:53:24;20.50;90.40
66328;DHT22;53133;52.862;6.602;2022-07-01T11:55:51;20.40;90.20
66328;DHT22;53133;52.862;6.602;2022-07-01T11:58:16;20.40;90.10
66328;DHT22;53133;52.862;6.602;2022-07-01T12:00:42;20.40;90.00
66328;DHT22;53133;52.862;6.602;2022-07-01T12:03:08;20.40;90.30
66328;DHT22;53133;52.862;6.602;2022-07-01T12:05:35;20.40;90.40
66328;DHT22;53133;52.862;6.602;2022-07-01T12:08:01;20.30;90.50
66328;DHT22;53133;52.862;6.602;2022-07-01T12:10:28;20.30;90.50
66328;DHT22;53133;52.862;6.602;2022-07-01T12:12:54;20.20;90.40
66328;DHT22;53133;52.862;6.602;2022-07-01T12:15:20;20.20;90.30
66328;DHT22;53133;52.862;6.602;2022-07-01T12:17:46;20.30;90.40
66328;DHT22;53133;52.862;6.602;2022-07-01T12:20:12;20.40;90.60
66328;DHT22;53133;52.862;6.602;2022-07-01T12:22:37;20.40;90.50
66328;DHT22;53133;52.862;6.602;2022-07-01T12:25:09;20.40;90.20
66328;DHT22;53133;52.862;6.602;2022-07-01T12:27:36;20.50;90.30
66328;DHT22;53133;52.862;6.602;2022-07-01T12:30:05;20.60;90.60
66328;DHT22;53133;52.862;6.602;2022-07-01T12:32:35;20.70;90.70
66328;DHT22;53133;52.862;6.602;2022-07-01T12:35:06;20.80;90.50
66328;DHT22;53133;52.862;6.602;2022-07-01T12:37:52;21.00;90.00
66328;DHT22;53133;52.862;6.602;2022-07-01T12:40:22;21.10;90.30
66328;DHT22;53133;52.862;6.602;2022-07-01T12:42:48;21.10;89.40
66328;DHT22;53133;52.862;6.602;2022-07-01T12:45:16;21.00;89.80
66328;DHT22;53133;52.862;6.602;2022-07-01T12:47:53;20.90;89.80
66328;DHT22;53133;52.862;6.602;2022-07-01T12:50:21;20.80;90.30
66328;DHT22;53133;52.862;6.602;2022-07-01T12:55:43;20.70;90.60
66328;DHT22;53133;52.862;6.602;2022-07-01T13:00:38;20.60;90.40
66328;DHT22;53133;52.862;6.602;2022-07-01T13:03:04;20.60;90.60
66328;DHT22;53133;52.862;6.602;2022-07-01T13:05:33;20.60;90.20
66328;DHT22;53133;52.862;6.602;2022-07-01T13:08:00;20.60;90.30
66328;DHT22;53133;52.862;6.602;2022-07-01T13:10:26;20.60;90.00
66328;DHT22;53133;52.862;6.602;2022-07-01T13:12:52;20.60;90.20
66328;DHT22;53133;52.862;6.602;2022-07-01T13:15:18;20.50;90.50
66328;DHT22;53133;52.862;6.602;2022-07-01T13:17:45;20.40;90.20
66328;DHT22;53133;52.862;6.602;2022-07-01T13:20:12;20.30;89.30
66328;DHT22;53133;52.862;6.602;2022-07-01T13:22:38;20.30;89.30
66328;DHT22;53133;52.862;6.602;2022-07-01T13:25:04;20.20;89.30
66328;DHT22;53133;52.862;6.602;2022-07-01T13:27:29;20.40;89.30
66328;DHT22;53133;52.862;6.602;2022-07-01T13:29:55;20.40;89.80
66328;DHT22;53133;52.862;6.602;2022-07-01T13:32:22;20.40;88.70
66328;DHT22;53133;52.862;6.602;2022-07-01T13:34:48;20.50;89.00
66328;DHT22;53133;52.862;6.602;2022-07-01T13:37:13;20.50;89.80
66328;DHT22;53133;52.862;6.602;2022-07-01T13:39:39;20.40;89.50
66328;DHT22;53133;52.862;6.602;2022-07-01T13:42:05;20.40;90.00
66328;DHT22;53133;52.862;6.602;2022-07-01T13:44:31;20.30;90.20
66328;DHT22;53133;52.862;6.602;2022-07-01T13:46:56;20.20;90.80
66328;DHT22;53133;52.862;6.602;2022-07-01T13:49:22;20.20;91.50
66328;DHT22;53133;52.862;6.602;2022-07-01T13:51:48;20.30;91.40
66328;DHT22;53133;52.862;6.602;2022-07-01T13:54:13;20.40;90.90
66328;DHT22;53133;52.862;6.602;2022-07-01T13:56:39;20.30;90.50
66328;DHT22;53133;52.862;6.602;2022-07-01T13:59:05;20.20;90.60
66328;DHT22;53133;52.862;6.602;2022-07-01T14:01:31;20.20;90.80
66328;DHT22;53133;52.862;6.602;2022-07-01T14:03:58;20.20;91.00
66328;DHT22;53133;52.862;6.602;2022-07-01T14:06:24;20.30;91.00
66328;DHT22;53133;52.862;6.602;2022-07-01T14:08:49;20.40;91.10
66328;DHT22;53133;52.862;6.602;2022-07-01T14:11:15;20.50;90.30
66328;DHT22;53133;52.862;6.602;2022-07-01T14:13:40;20.60;90.50
66328;DHT22;53133;52.862;6.602;2022-07-01T14:16:06;20.70;90.40
66328;DHT22;53133;52.862;6.602;2022-07-01T14:18:33;20.70;90.00
66328;DHT22;53133;52.862;6.602;2022-07-01T14:21:00;20.70;89.00
66328;DHT22;53133;52.862;6.602;2022-07-01T14:23:26;20.60;90.00
66328;DHT22;53133;52.862;6.602;2022-07-01T14:25:52;20.70;90.00
66328;DHT22;53133;52.862;6.602;2022-07-01T14:28:17;20.80;89.00
66328;DHT22;53133;52.862;6.602;2022-07-01T14:30:44;20.90;88.40
66328;DHT22;53133;52.862;6.602;2022-07-01T14:33:10;20.90;88.10
66328;DHT22;53133;52.862;6.602;2022-07-01T14:35:35;20.90;88.50
66328;DHT22;53133;52.862;6.602;2022-07-01T14:38:01;20.80;87.50
66328;DHT22;53133;52.862;6.602;2022-07-01T14:40:27;20.80;87.10
66328;DHT22;53133;52.862;6.602;2022-07-01T14:42:52;20.70;87.50
66328;DHT22;53133;52.862;6.602;2022-07-01T14:45:18;20.70;87.30
66328;DHT22;53133;52.862;6.602;2022-07-01T14:47:44;20.60;87.60
66328;DHT22;53133;52.862;6.602;2022-07-01T14:50:11;20.60;87.40
66328;DHT22;53133;52.862;6.602;2022-07-01T14:52:37;20.70;86.70
66328;DHT22;53133;52.862;6.602;2022-07-01T14:55:03;20.60;87.30
66328;DHT22;53133;52.862;6.602;2022-07-01T14:57:29;20.70;87.70
66328;DHT22;53133;52.862;6.602;2022-07-01T14:59:55;20.70;88.10
66328;DHT22;53133;52.862;6.602;2022-07-01T15:02:22;20.70;87.40
66328;DHT22;53133;52.862;6.602;2022-07-01T15:04:48;20.70;88.20
66328;DHT22;53133;52.862;6.602;2022-07-01T15:07:14;20.60;88.10
66328;DHT22;53133;52.862;6.602;2022-07-01T15:09:40;20.70;87.90
66328;DHT22;53133;52.862;6.602;2022-07-01T15:12:06;20.70;87.70
66328;DHT22;53133;52.862;6.602;2022-07-01T15:14:32;20.70;88.00
66328;DHT22;53133;52.862;6.602;2022-07-01T15:16:58;20.70;87.90
66328;DHT22;53133;52.862;6.602;2022-07-01T15:19:25;20.70;88.00
66328;DHT22;53133;52.862;6.602;2022-07-01T15:21:55;20.70;88.10
66328;DHT22;53133;52.862;6.602;2022-07-01T15:24:21;20.60;88.10
66328;DHT22;53133;52.862;6.602;2022-07-01T15:26:47;20.50;88.70
66328;DHT22;53133;52.862;6.602;2022-07-01T15:29:12;20.60;88.70
66328;DHT22;53133;52.862;6.602;2022-07-01T15:31:38;20.60;89.10
66328;DHT22;53133;52.862;6.602;2022-07-01T15:34:04;20.60;87.00
66328;DHT22;53133;52.862;6.602;2022-07-01T15:36:29;20.50;86.40
66328;DHT22;53133;52.862;6.602;2022-07-01T15:38:55;20.50;86.70
66328;DHT22;53133;52.862;6.602;2022-07-01T15:41:23;20.40;87.50
66328;DHT22;53133;52.862;6.602;2022-07-01T15:43:51;20.40;87.80
66328;DHT22;53133;52.862;6.602;2022-07-01T15:46:17;20.40;87.50